createdAt,value
2023-01-17T00:01:29.427Z,5.25
2023-01-17T00:04:15.426Z,5.20
2023-01-17T00:07:01.177Z,6.53
2023-01-17T00:09:46.821Z,7.07
2023-01-17T00:12:13.668Z,7.35
2023-01-17T00:17:07.158Z,4.90
2023-01-17T00:19:52.806Z,4.50
2023-01-17T00:22:44.454Z,4.32
2023-01-17T00:25:34.227Z,4.18
2023-01-17T00:28:01.027Z,4.22
2023-01-17T00:32:55.683Z,4.80
2023-01-17T00:37:49.887Z,4.12
2023-01-17T00:40:16.758Z,4.82
2023-01-17T00:42:43.529Z,4.82
2023-01-17T00:48:14.365Z,6.28
2023-01-17T00:50:59.857Z,7.35
2023-01-17T00:53:45.300Z,6.20
2023-01-17T00:56:30.967Z,7.50
2023-01-17T00:59:16.469Z,6.05
2023-01-17T01:02:02.103Z,6.43
2023-01-17T01:04:47.592Z,5.28
2023-01-17T01:07:33.106Z,6.45
2023-01-17T01:10:20.892Z,6.68
2023-01-17T01:13:06.467Z,6.03
2023-01-17T01:15:52.233Z,5.70
2023-01-17T01:18:37.977Z,6.22
2023-01-17T01:21:24.610Z,5.25
2023-01-17T01:24:10.224Z,5.72
2023-01-17T01:26:55.806Z,6.37
2023-01-17T01:29:41.368Z,5.30
2023-01-17T01:32:27.060Z,5.70
2023-01-17T01:34:53.953Z,5.37
2023-01-17T01:37:20.784Z,5.43
2023-01-17T01:42:16.029Z,5.78
2023-01-17T01:44:46.150Z,5.95
2023-01-17T01:47:19.839Z,5.40
2023-01-17T01:49:48.798Z,5.68
2023-01-17T01:52:16.139Z,5.75
2023-01-17T01:54:54.838Z,5.70
2023-01-17T01:57:23.886Z,6.18
2023-01-17T01:59:56.239Z,6.55
2023-01-17T02:02:23.130Z,6.53
2023-01-17T02:04:50.368Z,6.22
2023-01-17T02:07:24.427Z,6.68
2023-01-17T02:09:51.843Z,6.07
2023-01-17T02:12:20.362Z,5.87
2023-01-17T02:14:47.205Z,6.43
2023-01-17T02:20:24.995Z,6.55
2023-01-17T02:23:08.832Z,6.62
2023-01-17T02:26:11.235Z,7.07
2023-01-17T02:28:53.196Z,6.28
2023-01-17T02:31:51.005Z,6.80
2023-01-17T02:34:25.566Z,7.53
2023-01-17T02:37:08.520Z,7.57
2023-01-17T02:39:40.123Z,7.28
2023-01-17T02:42:11.263Z,6.90
2023-01-17T02:44:42.237Z,7.03
2023-01-17T02:47:29.664Z,6.95
2023-01-17T02:50:06.109Z,6.45
2023-01-17T02:52:54.903Z,5.10
2023-01-17T02:55:37.025Z,4.53
2023-01-17T02:58:23.107Z,5.15
2023-01-17T03:01:26.839Z,4.70
2023-01-17T03:04:24.517Z,4.97
2023-01-17T03:06:56.107Z,4.43
2023-01-17T03:09:23.137Z,4.43
2023-01-17T03:11:50.050Z,4.87
2023-01-17T03:14:16.972Z,4.45
2023-01-17T03:16:44.471Z,4.00
2023-01-17T03:19:11.366Z,4.35
2023-01-17T03:21:38.256Z,2.80
2023-01-17T03:24:05.284Z,3.40
2023-01-17T03:26:32.124Z,4.05
2023-01-17T03:31:25.758Z,3.78
2023-01-17T03:33:52.640Z,3.33
2023-01-17T03:36:20.454Z,3.62
2023-01-17T03:38:47.330Z,3.70
2023-01-17T03:41:14.245Z,4.18
2023-01-17T03:43:41.110Z,3.75
2023-01-17T03:46:27.599Z,3.37
2023-01-17T03:48:54.992Z,4.00
2023-01-17T03:51:21.924Z,3.30
2023-01-17T03:53:50.100Z,3.50
2023-01-17T03:56:17.093Z,3.85
2023-01-17T03:58:44.221Z,4.07
2023-01-17T04:01:11.608Z,3.90
2023-01-17T04:03:40.095Z,3.72
2023-01-17T04:06:07.165Z,3.92
2023-01-17T04:08:34.091Z,3.50
2023-01-17T04:11:01.093Z,4.45
2023-01-17T04:13:27.933Z,3.35
2023-01-17T04:18:23.232Z,3.33
2023-01-17T04:20:51.016Z,2.92
2023-01-17T04:23:18.328Z,3.30
2023-01-17T04:25:45.234Z,3.58
2023-01-17T04:28:12.344Z,2.80
2023-01-17T04:30:39.265Z,3.40
2023-01-17T04:33:06.161Z,3.42
2023-01-17T04:35:33.798Z,3.55
2023-01-17T04:38:01.007Z,2.92
2023-01-17T04:40:29.710Z,3.10
2023-01-17T04:42:59.761Z,2.90
2023-01-17T04:45:26.732Z,2.95
2023-01-17T04:47:53.590Z,2.55
2023-01-17T04:52:47.151Z,2.00
2023-01-17T04:57:40.870Z,1.83
2023-01-17T05:00:08.636Z,1.80
2023-01-17T05:02:35.577Z,2.35
2023-01-17T05:05:02.465Z,1.70
2023-01-17T05:09:56.021Z,1.70
2023-01-17T05:14:49.558Z,1.40
2023-01-17T05:19:43.063Z,1.77
2023-01-17T05:24:43.781Z,1.55
2023-01-17T05:27:11.751Z,1.30
2023-01-17T05:29:38.956Z,1.50
2023-01-17T05:32:06.454Z,1.33
2023-01-17T05:34:33.762Z,1.50
2023-01-17T05:37:00.646Z,1.20
2023-01-17T05:39:27.477Z,1.00
2023-01-17T05:44:21.096Z,1.15
2023-01-17T05:46:47.928Z,1.12
2023-01-17T05:51:41.455Z,1.40
2023-01-17T05:54:08.306Z,1.30
2023-01-17T05:59:01.823Z,1.25
2023-01-17T06:01:28.775Z,0.98
2023-01-17T06:03:55.659Z,0.82
2023-01-17T06:06:22.587Z,0.80
2023-01-17T06:08:49.483Z,1.00
2023-01-17T06:11:16.361Z,0.88
2023-01-17T06:13:43.195Z,0.88
2023-01-17T06:18:36.838Z,0.82
2023-01-17T06:23:30.527Z,0.80
2023-01-17T06:25:57.387Z,1.10
2023-01-17T06:28:24.646Z,0.88
2023-01-17T06:30:51.561Z,1.00
2023-01-17T06:33:18.434Z,0.70
2023-01-17T06:35:52.710Z,1.30
2023-01-17T06:38:19.961Z,1.12
2023-01-17T06:40:47.019Z,0.80
2023-01-17T06:43:13.928Z,0.68
2023-01-17T06:45:40.777Z,1.12
2023-01-17T06:50:34.684Z,0.90
2023-01-17T06:53:04.408Z,1.20
2023-01-17T06:58:37.413Z,0.90
2023-01-17T07:01:18.554Z,0.85
2023-01-17T07:03:45.814Z,0.62
2023-01-17T07:06:12.917Z,1.05
2023-01-17T07:08:39.883Z,0.95
2023-01-17T07:11:08.992Z,0.90
2023-01-17T07:13:38.728Z,0.70
2023-01-17T07:16:06.362Z,0.80
2023-01-17T07:18:33.861Z,0.82
2023-01-17T07:21:01.383Z,0.90
2023-01-17T07:23:28.269Z,0.60
2023-01-17T07:25:59.458Z,0.68
2023-01-17T07:28:27.904Z,0.65
2023-01-17T07:30:55.850Z,0.60
2023-01-17T07:33:22.843Z,1.08
2023-01-17T07:35:49.691Z,2.22
2023-01-17T07:38:19.050Z,1.30
2023-01-17T07:44:27.389Z,1.15
2023-01-17T07:46:54.992Z,1.25
2023-01-17T07:49:21.852Z,1.58
2023-01-17T07:54:22.349Z,2.03
2023-01-17T07:56:49.180Z,1.87
2023-01-17T08:01:42.845Z,2.10
2023-01-17T08:04:10.027Z,1.60
2023-01-17T08:06:38.042Z,1.40
2023-01-17T08:09:04.974Z,1.50
2023-01-17T08:11:31.855Z,1.67
2023-01-17T08:13:59.876Z,2.00
2023-01-17T08:16:28.876Z,1.65
2023-01-17T08:18:56.650Z,1.58
2023-01-17T08:21:23.928Z,1.77
2023-01-17T08:23:51.976Z,1.55
2023-01-17T08:26:23.360Z,1.73
2023-01-17T08:29:03.104Z,1.60
2023-01-17T08:31:31.785Z,1.60
2023-01-17T08:33:58.742Z,2.25
2023-01-17T08:36:26.026Z,1.90
2023-01-17T08:38:53.108Z,2.03
2023-01-17T08:41:21.102Z,1.70
2023-01-17T08:43:52.004Z,2.08
2023-01-17T08:46:19.512Z,2.25
2023-01-17T08:48:46.613Z,2.28
2023-01-17T08:51:13.634Z,1.85
2023-01-17T08:53:40.879Z,1.73
2023-01-17T08:56:07.992Z,1.60
2023-01-17T08:58:35.983Z,1.73
2023-01-17T09:01:04.926Z,1.65
2023-01-17T09:03:32.667Z,1.55
2023-01-17T09:06:06.955Z,1.50
2023-01-17T09:08:34.446Z,1.48
2023-01-17T09:11:12.404Z,1.30
2023-01-17T09:13:40.002Z,1.65
2023-01-17T09:16:07.500Z,1.10
2023-01-17T09:18:35.551Z,1.40
2023-01-17T09:21:16.935Z,1.77
2023-01-17T09:23:44.551Z,1.60
2023-01-17T09:26:26.138Z,1.50
2023-01-17T09:28:53.512Z,1.05
2023-01-17T09:31:21.775Z,1.23
2023-01-17T09:33:49.558Z,1.35
2023-01-17T09:36:16.759Z,1.30
2023-01-17T09:38:43.731Z,1.30
2023-01-17T09:41:22.207Z,1.20
2023-01-17T09:44:04.765Z,1.30
2023-01-17T09:46:37.913Z,1.30
2023-01-17T09:49:09.311Z,1.20
2023-01-17T09:51:36.651Z,1.12
2023-01-17T09:54:03.646Z,1.00
2023-01-17T09:56:41.626Z,1.30
2023-01-17T09:59:33.066Z,1.10
2023-01-17T10:02:30.758Z,1.15
2023-01-17T10:05:16.440Z,1.20
2023-01-17T10:08:11.443Z,1.35
2023-01-17T10:10:43.782Z,1.20
2023-01-17T10:13:36.770Z,1.35
2023-01-17T10:16:08.932Z,1.65
2023-01-17T10:18:56.265Z,1.50
2023-01-17T10:21:29.988Z,1.73
2023-01-17T10:24:16.483Z,1.90
2023-01-17T10:26:47.098Z,2.45
2023-01-17T10:29:20.190Z,1.50
2023-01-17T10:31:59.888Z,1.80
2023-01-17T10:34:42.399Z,1.37
2023-01-17T10:37:24.799Z,1.50
2023-01-17T10:39:54.682Z,1.60
2023-01-17T10:42:41.741Z,1.70
2023-01-17T10:45:21.622Z,1.58
2023-01-17T10:47:51.613Z,1.20
2023-01-17T10:50:19.999Z,1.40
2023-01-17T10:53:17.501Z,1.37
2023-01-17T10:55:56.153Z,1.70
2023-01-17T10:58:22.991Z,1.23
2023-01-17T11:00:54.234Z,1.80
2023-01-17T11:03:21.443Z,1.60
2023-01-17T11:06:23.631Z,1.42
2023-01-17T11:08:58.699Z,1.40
2023-01-17T11:11:32.066Z,1.08
2023-01-17T11:14:01.175Z,1.00
2023-01-17T11:16:31.546Z,1.00
2023-01-17T11:19:26.813Z,1.17
2023-01-17T11:21:57.779Z,1.20
2023-01-17T11:24:35.476Z,2.33
2023-01-17T11:27:04.879Z,2.50
2023-01-17T11:29:37.985Z,2.22
2023-01-17T11:32:32.371Z,2.03
2023-01-17T11:35:17.612Z,2.50
2023-01-17T11:37:50.257Z,1.90
2023-01-17T11:40:30.322Z,1.50
2023-01-17T11:43:22.056Z,2.28
2023-01-17T11:46:17.983Z,1.90
2023-01-17T11:48:56.468Z,2.00
2023-01-17T11:51:30.311Z,2.87
2023-01-17T11:54:22.087Z,3.22
2023-01-17T11:56:50.686Z,2.60
2023-01-17T11:59:30.506Z,2.17
2023-01-17T12:02:34.960Z,2.17
2023-01-17T12:05:21.262Z,2.03
2023-01-17T12:08:09.633Z,2.40
2023-01-17T12:10:55.089Z,2.20
2023-01-17T12:14:03.176Z,2.70
2023-01-17T12:16:57.945Z,2.10
2023-01-17T12:19:34.795Z,2.10
2023-01-17T12:22:10.698Z,2.37
2023-01-17T12:25:07.169Z,2.42
2023-01-17T12:27:51.601Z,3.20
2023-01-17T12:30:48.971Z,3.03
2023-01-17T12:33:45.846Z,3.42
2023-01-17T12:36:26.986Z,2.67
2023-01-17T12:38:53.835Z,2.42
2023-01-17T12:41:31.580Z,3.10
2023-01-17T12:44:00.274Z,3.62
2023-01-17T12:46:38.711Z,3.83
2023-01-17T12:49:28.930Z,3.05
2023-01-17T12:52:05.651Z,2.47
2023-01-17T12:54:41.734Z,2.33
2023-01-17T12:57:45.268Z,3.00
2023-01-17T13:00:23.418Z,2.75
2023-01-17T13:03:02.310Z,2.95
2023-01-17T13:05:41.932Z,2.92
2023-01-17T13:08:34.524Z,3.15
2023-01-17T13:11:28.047Z,3.20
2023-01-17T13:13:57.639Z,3.05
2023-01-17T13:16:35.409Z,3.25
2023-01-17T13:19:15.276Z,3.62
2023-01-17T13:21:42.716Z,3.60
2023-01-17T13:24:21.101Z,4.00
2023-01-17T13:26:50.978Z,3.85
2023-01-17T13:29:30.138Z,4.05
2023-01-17T13:32:11.091Z,4.40
2023-01-17T13:34:44.559Z,3.75
2023-01-17T13:37:34.410Z,3.50
2023-01-17T13:40:32.109Z,3.22
2023-01-17T13:43:06.443Z,2.60
2023-01-17T13:45:35.749Z,2.80
2023-01-17T13:48:18.392Z,2.40
2023-01-17T13:50:46.139Z,2.03
2023-01-17T13:53:39.373Z,3.45
2023-01-17T13:56:27.796Z,9.13
2023-01-17T13:59:02.872Z,1.60
2023-01-17T14:01:34.811Z,1.73
2023-01-17T14:04:04.843Z,1.62
2023-01-17T14:06:36.543Z,1.92
2023-01-17T14:09:14.300Z,2.00
2023-01-17T14:12:18.686Z,1.98
2023-01-17T14:14:48.833Z,2.10
2023-01-17T14:17:25.921Z,2.28
2023-01-17T14:19:54.976Z,2.03
2023-01-17T14:22:21.723Z,1.58
2023-01-17T14:27:48.752Z,2.07
2023-01-17T14:30:28.611Z,2.00
2023-01-17T14:33:04.808Z,1.60
2023-01-17T14:35:37.292Z,1.85
2023-01-17T14:38:15.691Z,1.83
2023-01-17T14:40:51.888Z,1.75
2023-01-17T14:43:24.241Z,2.08
2023-01-17T14:45:58.829Z,2.20
2023-01-17T14:48:26.064Z,2.10
2023-01-17T14:50:54.644Z,2.00
2023-01-17T14:53:28.326Z,2.25
2023-01-17T14:56:11.607Z,2.08
2023-01-17T14:58:39.427Z,1.98
2023-01-17T15:01:20.309Z,2.50
2023-01-17T15:03:53.633Z,2.30
2023-01-17T15:06:25.824Z,2.70
2023-01-17T15:08:54.283Z,2.47
2023-01-17T15:11:26.767Z,2.62
2023-01-17T15:13:57.551Z,2.62
2023-01-17T15:16:27.356Z,2.85
2023-01-17T15:18:55.179Z,2.87
2023-01-17T15:21:28.765Z,3.20
2023-01-17T15:23:59.683Z,2.85
2023-01-17T15:26:33.617Z,3.25
2023-01-17T15:29:05.179Z,3.03
2023-01-17T15:31:47.475Z,3.28
2023-01-17T15:34:30.104Z,3.95
2023-01-17T15:37:08.150Z,3.65
2023-01-17T15:39:36.921Z,4.30
2023-01-17T15:42:06.885Z,2.50
2023-01-17T15:44:48.519Z,2.22
2023-01-17T15:47:32.644Z,3.30
2023-01-17T15:50:00.851Z,1.92
2023-01-17T15:52:28.609Z,3.00
2023-01-17T15:55:11.415Z,3.22
2023-01-17T15:57:39.030Z,2.72
2023-01-17T16:00:19.849Z,1.90
2023-01-17T16:02:47.345Z,2.00
2023-01-17T16:05:23.924Z,1.83
2023-01-17T16:07:58.221Z,2.15
2023-01-17T16:10:28.887Z,2.17
2023-01-17T16:12:56.416Z,2.90
2023-01-17T16:15:24.048Z,2.50
2023-01-17T16:17:56.896Z,3.55
2023-01-17T16:20:26.674Z,2.62
2023-01-17T16:22:53.688Z,3.35
2023-01-17T16:25:22.443Z,3.22
2023-01-17T16:27:50.246Z,3.30
2023-01-17T16:30:19.705Z,3.28
2023-01-17T16:32:50.776Z,3.83
2023-01-17T16:35:22.289Z,3.90
2023-01-17T16:37:54.280Z,3.80
2023-01-17T16:40:23.650Z,3.55
2023-01-17T16:42:50.711Z,2.78
2023-01-17T16:45:18.074Z,4.40
2023-01-17T16:47:46.674Z,3.45
2023-01-17T16:50:16.247Z,3.53
2023-01-17T16:52:43.109Z,4.47
2023-01-17T16:57:39.441Z,2.90
2023-01-17T17:00:07.953Z,2.42
2023-01-17T17:02:35.074Z,3.97
2023-01-17T17:05:01.919Z,3.05
2023-01-17T17:09:55.505Z,3.42
2023-01-17T17:12:22.369Z,2.55
2023-01-17T17:14:49.266Z,2.12
2023-01-17T17:17:16.112Z,2.37
2023-01-17T17:22:09.798Z,2.37
2023-01-17T17:27:03.336Z,2.47
2023-01-17T17:29:30.209Z,2.45
2023-01-17T17:31:57.093Z,2.30
2023-01-17T17:34:25.800Z,1.02
2023-01-17T17:36:52.952Z,1.85
2023-01-17T17:39:19.836Z,2.03
2023-01-17T17:41:47.414Z,1.50
2023-01-17T17:44:14.442Z,1.77
2023-01-17T17:46:42.506Z,1.92
2023-01-17T17:49:09.563Z,1.95
2023-01-17T17:51:38.475Z,1.10
2023-01-17T17:54:10.234Z,1.10
2023-01-17T17:56:37.954Z,1.20
2023-01-17T17:59:06.327Z,1.30
2023-01-17T18:01:33.682Z,1.40
2023-01-17T18:04:04.759Z,1.40
2023-01-17T18:06:31.621Z,1.08
2023-01-17T18:11:26.821Z,1.30
2023-01-17T18:13:56.327Z,1.40
2023-01-17T18:16:37.509Z,1.12
2023-01-17T18:19:05.015Z,1.00
2023-01-17T18:21:34.554Z,1.33
2023-01-17T18:24:05.977Z,1.35
2023-01-17T18:26:35.662Z,1.02
2023-01-17T18:29:04.088Z,1.77
2023-01-17T18:31:31.506Z,1.52
2023-01-17T18:34:00.470Z,1.60
2023-01-17T18:36:30.833Z,1.98
2023-01-17T18:38:58.014Z,1.33
2023-01-17T18:41:27.250Z,1.75
2023-01-17T18:43:56.180Z,1.73
2023-01-17T18:46:23.660Z,1.62
2023-01-17T18:48:51.450Z,1.48
2023-01-17T18:51:19.635Z,1.80
2023-01-17T18:53:46.935Z,1.55
2023-01-17T18:56:18.870Z,2.10
2023-01-17T18:58:47.258Z,1.52
2023-01-17T19:01:19.839Z,1.62
2023-01-17T19:03:48.105Z,1.75
2023-01-17T19:06:26.419Z,1.58
2023-01-17T19:08:53.522Z,1.62
2023-01-17T19:11:22.089Z,2.30
2023-01-17T19:13:50.405Z,2.20
2023-01-17T19:16:24.580Z,2.45
2023-01-17T19:18:52.669Z,2.37
2023-01-17T19:21:22.758Z,2.75
2023-01-17T19:23:50.681Z,2.75
2023-01-17T19:26:20.064Z,2.42
2023-01-17T19:28:48.394Z,2.70
2023-01-17T19:31:18.018Z,2.75
2023-01-17T19:33:47.063Z,2.67
2023-01-17T19:36:19.629Z,2.75
2023-01-17T19:39:03.020Z,2.25
2023-01-17T19:41:30.876Z,2.33
2023-01-17T19:44:02.498Z,2.72
2023-01-17T19:46:30.093Z,2.50
2023-01-17T19:48:57.891Z,1.95
2023-01-17T19:51:25.429Z,1.90
2023-01-17T19:53:53.785Z,1.73
2023-01-17T19:56:23.779Z,2.20
2023-01-17T19:58:51.036Z,2.15
2023-01-17T20:01:24.793Z,1.83
2023-01-17T20:03:52.458Z,2.28
2023-01-17T20:06:21.313Z,1.62
2023-01-17T20:08:48.196Z,1.83
2023-01-17T20:11:19.313Z,1.75
2023-01-17T20:13:47.220Z,2.03
2023-01-17T20:16:15.641Z,2.20
2023-01-17T20:18:42.892Z,2.22
2023-01-17T20:21:15.200Z,1.80
2023-01-17T20:23:43.765Z,1.85
2023-01-17T20:26:11.503Z,2.42
2023-01-17T20:28:40.569Z,1.42
2023-01-17T20:31:09.667Z,2.10
2023-01-17T20:33:36.810Z,1.60
2023-01-17T20:36:10.427Z,1.67
2023-01-17T20:38:45.412Z,1.73
2023-01-17T20:41:21.428Z,1.10
2023-01-17T20:43:53.032Z,1.48
2023-01-17T20:46:22.011Z,1.20
2023-01-17T20:48:50.967Z,1.00
2023-01-17T20:51:18.821Z,1.42
2023-01-17T20:53:46.991Z,1.80
2023-01-17T20:56:15.517Z,1.20
2023-01-17T20:58:42.835Z,1.20
2023-01-17T21:01:11.375Z,1.30
2023-01-17T21:03:39.427Z,1.40
2023-01-17T21:06:08.783Z,1.25
2023-01-17T21:08:38.244Z,1.50
2023-01-17T21:11:06.038Z,1.58
2023-01-17T21:13:33.096Z,1.60
2023-01-17T21:15:59.994Z,1.60
2023-01-17T21:18:28.281Z,1.27
2023-01-17T21:20:55.160Z,1.70
2023-01-17T21:23:26.444Z,1.70
2023-01-17T21:25:55.685Z,1.40
2023-01-17T21:28:24.326Z,1.60
2023-01-17T21:30:51.774Z,1.20
2023-01-17T21:33:19.897Z,1.80
2023-01-17T21:35:47.036Z,1.48
2023-01-17T21:38:14.521Z,1.80
2023-01-17T21:40:42.507Z,1.87
2023-01-17T21:43:09.807Z,4.05
2023-01-17T21:45:37.590Z,5.10
2023-01-17T21:48:04.974Z,2.78
2023-01-17T21:50:33.498Z,1.50
2023-01-17T21:53:01.134Z,2.30
2023-01-17T21:55:46.758Z,2.12
2023-01-17T21:58:33.707Z,1.55
2023-01-17T22:01:30.572Z,1.90
2023-01-17T22:03:59.756Z,1.98
2023-01-17T22:06:28.738Z,3.05
2023-01-17T22:08:56.293Z,4.68
2023-01-17T22:11:24.903Z,4.90
2023-01-17T22:13:52.282Z,3.97
2023-01-17T22:16:24.331Z,3.65
2023-01-17T22:18:52.017Z,4.65
2023-01-17T22:21:20.941Z,4.00
2023-01-17T22:23:55.654Z,3.83
2023-01-17T22:26:25.038Z,4.07
2023-01-17T22:28:53.196Z,3.67
2023-01-17T22:31:24.752Z,3.00
2023-01-17T22:33:56.790Z,2.95
2023-01-17T22:36:23.880Z,3.97
2023-01-17T22:38:50.842Z,4.90
2023-01-17T22:41:22.019Z,6.95
2023-01-17T22:43:52.866Z,7.90
2023-01-17T22:46:22.510Z,6.45
2023-01-17T22:48:49.722Z,2.00
2023-01-17T22:51:17.981Z,1.48
2023-01-17T22:53:53.130Z,1.10
2023-01-17T22:56:23.131Z,1.20
2023-01-17T22:58:50.386Z,1.20
2023-01-17T23:01:24.220Z,1.00
2023-01-17T23:03:59.364Z,1.20
2023-01-17T23:06:29.597Z,1.10
2023-01-17T23:08:58.571Z,1.20
2023-01-17T23:11:39.199Z,1.12
2023-01-17T23:14:13.345Z,1.20
2023-01-17T23:17:01.135Z,1.80
2023-01-17T23:19:30.136Z,1.60
2023-01-17T23:22:20.313Z,1.67
2023-01-17T23:25:01.064Z,1.62
2023-01-17T23:27:53.516Z,1.60
2023-01-17T23:30:25.882Z,1.87
2023-01-17T23:32:55.726Z,1.90
2023-01-17T23:35:25.464Z,1.90
2023-01-17T23:38:10.820Z,1.95
2023-01-17T23:40:38.676Z,2.35
2023-01-17T23:43:24.113Z,1.95
2023-01-17T23:45:52.375Z,2.10
2023-01-17T23:48:19.606Z,2.08
2023-01-17T23:50:47.768Z,2.10
2023-01-17T23:53:22.586Z,1.90
2023-01-17T23:55:57.211Z,1.90
2023-01-17T23:58:26.572Z,1.80
